createdAt,value
2022-11-07T00:00:53.030Z,6.85
2022-11-07T00:03:23.070Z,7.38
2022-11-07T00:05:53.239Z,7.57
2022-11-07T00:08:33.363Z,8.30
2022-11-07T00:11:04.021Z,9.20
2022-11-07T00:13:34.478Z,6.80
2022-11-07T00:16:06.443Z,9.95
2022-11-07T00:18:36.650Z,7.80
2022-11-07T00:21:07.822Z,8.27
2022-11-07T00:23:38.165Z,8.45
2022-11-07T00:26:09.784Z,7.00
2022-11-07T00:28:41.807Z,7.85
2022-11-07T00:31:12.826Z,7.38
2022-11-07T00:33:43.610Z,6.13
2022-11-07T00:36:25.233Z,9.18
2022-11-07T00:38:56.627Z,6.38
2022-11-07T00:43:59.390Z,9.55
2022-11-07T00:46:29.329Z,8.00
2022-11-07T00:48:59.328Z,6.32
2022-11-07T00:51:30.165Z,7.05
2022-11-07T00:54:00.444Z,8.55
2022-11-07T00:56:30.440Z,9.43
2022-11-07T00:59:00.947Z,12.55
2022-11-07T01:01:32.996Z,8.52
2022-11-07T01:04:21.358Z,10.68
2022-11-07T01:06:56.874Z,16.52
2022-11-07T01:09:30.029Z,7.53
2022-11-07T01:12:01.574Z,20.25
2022-11-07T01:14:41.284Z,8.35
2022-11-07T01:17:13.987Z,11.55
2022-11-07T01:19:44.459Z,5.67
2022-11-07T01:22:18.531Z,7.30
2022-11-07T01:24:49.069Z,10.18
2022-11-07T01:27:19.840Z,10.98
2022-11-07T01:29:50.219Z,7.75
2022-11-07T01:32:20.973Z,5.88
2022-11-07T01:34:51.245Z,7.40
2022-11-07T01:37:24.538Z,6.20
2022-11-07T01:39:58.438Z,6.00
2022-11-07T01:42:28.615Z,8.52
2022-11-07T01:45:00.437Z,5.93
2022-11-07T01:47:37.538Z,7.53
2022-11-07T01:50:08.509Z,6.45
2022-11-07T01:52:53.159Z,7.63
2022-11-07T01:55:32.280Z,5.72
2022-11-07T01:58:09.034Z,8.00
2022-11-07T02:00:39.109Z,8.52
2022-11-07T02:03:14.182Z,7.38
2022-11-07T02:05:54.102Z,6.07
2022-11-07T02:08:24.341Z,6.50
2022-11-07T02:10:54.562Z,7.03
2022-11-07T02:13:27.261Z,6.30
2022-11-07T02:15:59.985Z,8.50
2022-11-07T02:18:37.603Z,7.32
2022-11-07T02:21:37.220Z,6.30
2022-11-07T02:24:14.195Z,6.82
2022-11-07T02:26:52.519Z,7.47
2022-11-07T02:29:28.703Z,9.15
2022-11-07T02:32:06.480Z,6.22
2022-11-07T02:34:49.923Z,7.13
2022-11-07T02:37:33.216Z,8.75
2022-11-07T02:40:04.922Z,4.97
2022-11-07T02:42:44.574Z,6.72
2022-11-07T02:45:29.760Z,6.95
2022-11-07T02:47:59.811Z,9.52
2022-11-07T02:50:30.396Z,7.13
2022-11-07T02:53:00.749Z,6.18
2022-11-07T02:55:30.733Z,7.13
2022-11-07T02:58:01.156Z,7.47
2022-11-07T03:00:31.122Z,5.95
2022-11-07T03:03:01.100Z,5.75
2022-11-07T03:05:31.167Z,6.53
2022-11-07T03:08:01.060Z,5.40
2022-11-07T03:10:30.970Z,7.32
2022-11-07T03:13:01.011Z,7.88
2022-11-07T03:15:31.005Z,6.93
2022-11-07T03:18:02.692Z,6.82
2022-11-07T03:20:33.206Z,11.20
2022-11-07T03:23:03.294Z,8.15
2022-11-07T03:25:33.196Z,5.68
2022-11-07T03:28:03.904Z,7.05
2022-11-07T03:30:34.839Z,5.78
2022-11-07T03:33:04.956Z,7.80
2022-11-07T03:35:37.409Z,10.57
2022-11-07T03:38:07.979Z,7.45
2022-11-07T03:40:38.749Z,10.27
2022-11-07T03:43:08.831Z,10.10
2022-11-07T03:45:38.779Z,8.82
2022-11-07T03:48:08.843Z,10.65
2022-11-07T03:50:40.241Z,9.38
2022-11-07T03:53:11.237Z,11.18
2022-11-07T03:55:43.444Z,8.88
2022-11-07T03:58:13.660Z,8.40
2022-11-07T04:00:43.683Z,9.10
2022-11-07T04:03:14.952Z,7.05
2022-11-07T04:05:48.028Z,10.38
2022-11-07T04:08:18.650Z,11.80
2022-11-07T04:10:48.988Z,11.10
2022-11-07T04:13:36.965Z,17.08
2022-11-07T04:16:29.766Z,21.63
2022-11-07T04:19:00.157Z,22.80
2022-11-07T04:21:30.044Z,21.92
2022-11-07T04:23:59.967Z,18.38
2022-11-07T04:26:47.783Z,17.67
2022-11-07T04:29:17.941Z,18.77
2022-11-07T04:31:47.958Z,20.08
2022-11-07T04:34:17.920Z,17.52
2022-11-07T04:36:47.825Z,17.73
2022-11-07T04:39:17.758Z,15.88
2022-11-07T04:41:47.671Z,17.27
2022-11-07T04:44:17.606Z,14.00
2022-11-07T04:46:47.541Z,14.88
2022-11-07T04:49:17.469Z,15.80
2022-11-07T04:51:47.562Z,10.73
2022-11-07T04:54:17.664Z,11.82
2022-11-07T04:56:47.593Z,14.45
2022-11-07T04:59:17.511Z,14.52
2022-11-07T05:01:47.668Z,11.82
2022-11-07T05:04:17.596Z,12.13
2022-11-07T05:06:47.691Z,10.80
2022-11-07T05:09:19.182Z,11.30
2022-11-07T05:11:49.677Z,11.15
2022-11-07T05:14:19.583Z,12.25
2022-11-07T05:16:49.533Z,10.82
2022-11-07T05:19:20.255Z,10.57
2022-11-07T05:22:10.269Z,12.68
2022-11-07T05:24:40.678Z,7.82
2022-11-07T05:27:22.999Z,9.60
2022-11-07T05:29:53.144Z,8.82
2022-11-07T05:32:23.071Z,7.75
2022-11-07T05:34:55.836Z,10.02
2022-11-07T05:37:25.765Z,9.63
2022-11-07T05:39:55.694Z,8.57
2022-11-07T05:42:25.622Z,9.40
2022-11-07T05:44:55.589Z,10.43
2022-11-07T05:47:25.546Z,10.77
2022-11-07T05:49:55.517Z,10.73
2022-11-07T05:52:25.615Z,9.38
2022-11-07T05:54:55.559Z,6.82
2022-11-07T05:57:28.686Z,13.57
2022-11-07T06:00:01.513Z,10.73
2022-11-07T06:02:42.052Z,10.77
2022-11-07T06:05:19.317Z,12.77
2022-11-07T06:07:52.491Z,11.98
2022-11-07T06:10:22.592Z,14.75
2022-11-07T06:13:02.809Z,7.88
2022-11-07T06:15:34.523Z,11.50
2022-11-07T06:18:05.028Z,13.75
2022-11-07T06:20:35.973Z,9.25
2022-11-07T06:23:06.937Z,9.50
2022-11-07T06:25:37.547Z,9.88
2022-11-07T06:28:09.445Z,9.40
2022-11-07T06:30:39.535Z,9.10
2022-11-07T06:33:12.038Z,9.50
2022-11-07T06:35:42.150Z,11.52
2022-11-07T06:38:13.018Z,14.07
2022-11-07T06:40:43.795Z,8.07
2022-11-07T06:43:15.898Z,11.80
2022-11-07T06:45:46.532Z,12.55
2022-11-07T06:48:16.735Z,12.45
2022-11-07T06:50:49.083Z,14.32
2022-11-07T06:53:19.456Z,12.35
2022-11-07T06:55:49.660Z,10.65
2022-11-07T06:58:19.643Z,10.82
2022-11-07T07:00:49.731Z,9.38
2022-11-07T07:03:19.882Z,12.18
2022-11-07T07:05:49.840Z,9.05
2022-11-07T07:08:20.342Z,12.57
2022-11-07T07:10:50.400Z,12.52
2022-11-07T07:13:20.291Z,11.88
2022-11-07T07:15:56.916Z,9.38
2022-11-07T07:18:27.133Z,13.70
2022-11-07T07:21:17.318Z,9.70
2022-11-07T07:23:49.802Z,9.98
2022-11-07T07:26:20.138Z,11.43
2022-11-07T07:28:53.232Z,12.07
2022-11-07T07:31:24.689Z,33.50
2022-11-07T07:33:54.755Z,18.83
2022-11-07T07:36:24.835Z,18.25
2022-11-07T07:38:54.818Z,16.00
2022-11-07T07:41:24.800Z,17.30
2022-11-07T07:43:54.700Z,21.52
2022-11-07T07:46:25.054Z,18.08
2022-11-07T07:48:55.489Z,18.50
2022-11-07T07:51:25.763Z,16.92
2022-11-07T07:53:55.671Z,16.08
2022-11-07T07:56:25.805Z,15.70
2022-11-07T07:58:55.873Z,16.55
2022-11-07T08:01:25.979Z,13.73
2022-11-07T08:04:02.085Z,13.50
2022-11-07T08:06:33.698Z,13.98
2022-11-07T08:09:04.756Z,12.75
2022-11-07T08:11:35.006Z,18.13
2022-11-07T08:14:04.928Z,15.38
2022-11-07T08:16:34.863Z,14.60
2022-11-07T08:19:05.286Z,16.50
2022-11-07T08:21:35.234Z,15.02
2022-11-07T08:24:05.318Z,12.80
2022-11-07T08:26:36.432Z,10.57
2022-11-07T08:29:07.342Z,11.27
2022-11-07T08:31:37.883Z,12.07
2022-11-07T08:34:08.099Z,14.27
2022-11-07T08:36:38.189Z,9.23
2022-11-07T08:39:09.155Z,17.30
2022-11-07T08:41:39.712Z,12.23
2022-11-07T08:44:11.213Z,11.40
2022-11-07T08:46:41.449Z,37.15
2022-11-07T08:49:12.280Z,26.40
2022-11-07T08:51:42.515Z,20.75
2022-11-07T08:54:13.796Z,14.10
2022-11-07T08:56:44.404Z,21.55
2022-11-07T08:59:15.120Z,15.98
2022-11-07T09:02:14.393Z,14.48
2022-11-07T09:04:35.835Z,18.70
2022-11-07T09:07:07.129Z,16.98
2022-11-07T09:09:37.615Z,15.50
2022-11-07T09:12:08.326Z,17.65
2022-11-07T09:14:38.713Z,14.80
2022-11-07T09:17:08.703Z,14.57
2022-11-07T09:19:39.784Z,13.52
2022-11-07T09:22:09.738Z,11.05
2022-11-07T09:24:39.747Z,13.82
2022-11-07T09:27:10.182Z,12.55
2022-11-07T09:29:41.555Z,15.52
2022-11-07T09:32:38.125Z,11.63
2022-11-07T09:35:05.106Z,12.45
2022-11-07T09:37:38.740Z,10.40
2022-11-07T09:40:22.056Z,10.55
2022-11-07T09:43:00.931Z,12.23
2022-11-07T09:45:31.512Z,12.95
2022-11-07T09:48:07.093Z,10.32
2022-11-07T09:50:42.884Z,9.90
2022-11-07T09:53:44.087Z,9.80
2022-11-07T09:56:14.287Z,8.85
2022-11-07T09:58:52.787Z,9.45
2022-11-07T10:01:22.928Z,9.38
2022-11-07T10:04:23.470Z,8.77
2022-11-07T10:06:55.652Z,8.77
2022-11-07T10:09:29.582Z,9.20
2022-11-07T10:12:13.083Z,9.18
2022-11-07T10:14:52.250Z,9.57
2022-11-07T10:17:44.717Z,9.52
2022-11-07T10:20:24.502Z,7.72
2022-11-07T10:23:16.901Z,10.23
2022-11-07T10:25:52.250Z,6.80
2022-11-07T10:28:22.466Z,7.93
2022-11-07T10:30:56.176Z,9.32
2022-11-07T10:33:26.095Z,7.80
2022-11-07T10:36:19.659Z,13.75
2022-11-07T10:38:49.574Z,7.85
2022-11-07T10:41:21.890Z,8.70
2022-11-07T10:43:57.939Z,8.45
2022-11-07T10:46:46.764Z,20.58
2022-11-07T10:49:29.345Z,20.75
2022-11-07T10:52:08.876Z,11.88
2022-11-07T10:54:38.925Z,15.75
2022-11-07T10:57:14.277Z,26.40
2022-11-07T10:59:56.240Z,15.88
2022-11-07T11:02:31.710Z,14.55
2022-11-07T11:05:05.809Z,18.30
2022-11-07T11:07:40.404Z,9.15
2022-11-07T11:10:24.818Z,12.60
2022-11-07T11:12:54.763Z,11.07
2022-11-07T11:15:28.815Z,11.32
2022-11-07T11:18:06.532Z,8.45
2022-11-07T11:20:40.335Z,9.50
2022-11-07T11:23:22.526Z,12.48
2022-11-07T11:25:53.412Z,7.93
2022-11-07T11:28:29.245Z,8.43
2022-11-07T11:31:05.181Z,9.00
2022-11-07T11:33:53.299Z,7.57
2022-11-07T11:36:29.091Z,7.85
2022-11-07T11:38:59.068Z,7.10
2022-11-07T11:41:53.363Z,7.45
2022-11-07T11:44:32.517Z,7.45
2022-11-07T11:47:35.730Z,6.88
2022-11-07T11:50:33.515Z,6.30
2022-11-07T11:53:03.549Z,6.80
2022-11-07T11:55:40.592Z,6.72
2022-11-07T11:58:45.748Z,11.88
2022-11-07T12:01:20.493Z,5.72
2022-11-07T12:03:58.844Z,6.57
2022-11-07T12:06:35.316Z,8.52
2022-11-07T12:09:17.380Z,8.18
2022-11-07T12:12:18.522Z,7.15
2022-11-07T12:15:09.846Z,5.72
2022-11-07T12:17:54.646Z,7.78
2022-11-07T12:20:54.631Z,6.75
2022-11-07T12:23:27.875Z,6.85
2022-11-07T12:26:20.786Z,8.80
2022-11-07T12:29:15.002Z,6.38
2022-11-07T12:32:00.363Z,6.18
2022-11-07T12:34:39.506Z,5.90
2022-11-07T12:37:37.003Z,6.05
2022-11-07T12:40:34.925Z,5.05
2022-11-07T12:43:13.587Z,8.90
2022-11-07T12:46:11.421Z,6.65
2022-11-07T12:49:05.682Z,5.13
2022-11-07T12:52:02.828Z,6.20
2022-11-07T12:54:50.989Z,6.93
2022-11-07T12:57:28.266Z,6.78
2022-11-07T13:00:13.617Z,9.43
2022-11-07T13:03:05.207Z,5.78
2022-11-07T13:06:04.490Z,8.70
2022-11-07T13:08:36.732Z,7.57
2022-11-07T13:11:15.905Z,7.82
2022-11-07T13:13:51.823Z,6.93
2022-11-07T13:16:29.778Z,7.30
2022-11-07T13:19:35.272Z,8.82
2022-11-07T13:22:15.652Z,6.05
2022-11-07T13:25:20.681Z,7.75
2022-11-07T13:27:59.688Z,7.65
2022-11-07T13:30:32.417Z,7.53
2022-11-07T13:33:02.481Z,7.40
2022-11-07T13:35:36.724Z,8.02
2022-11-07T13:38:19.642Z,7.00
2022-11-07T13:41:02.958Z,5.95
2022-11-07T13:43:37.764Z,7.53
2022-11-07T13:46:33.557Z,9.35
2022-11-07T13:49:12.217Z,8.25
2022-11-07T13:51:44.436Z,7.82
2022-11-07T13:54:30.287Z,5.80
2022-11-07T13:57:15.649Z,6.65
2022-11-07T13:59:47.325Z,9.23
2022-11-07T14:02:25.016Z,7.18
2022-11-07T14:07:59.175Z,8.02
2022-11-07T14:10:40.671Z,7.60
2022-11-07T14:13:15.906Z,7.75
2022-11-07T14:15:48.632Z,7.28
2022-11-07T14:18:19.321Z,11.05
2022-11-07T14:20:51.777Z,8.38
2022-11-07T14:23:27.182Z,9.93
2022-11-07T14:26:02.228Z,7.47
2022-11-07T14:28:39.427Z,7.75
2022-11-07T14:31:17.136Z,8.02
2022-11-07T14:33:51.890Z,8.98
2022-11-07T14:36:22.144Z,8.40
2022-11-07T14:38:57.239Z,9.40
2022-11-07T14:41:27.659Z,7.93
2022-11-07T14:43:58.022Z,8.27
2022-11-07T14:46:28.165Z,8.27
2022-11-07T14:48:58.119Z,8.27
2022-11-07T14:51:29.007Z,7.18
2022-11-07T14:54:06.332Z,7.00
2022-11-07T14:56:41.155Z,8.85
2022-11-07T14:59:15.863Z,8.32
2022-11-07T15:02:19.633Z,8.57
2022-11-07T15:04:49.796Z,8.45
2022-11-07T15:07:30.616Z,8.20
2022-11-07T15:10:12.526Z,8.57
2022-11-07T15:12:53.322Z,8.60
2022-11-07T15:15:28.153Z,10.00
2022-11-07T15:17:59.977Z,6.53
2022-11-07T15:20:33.365Z,8.43
2022-11-07T15:23:08.376Z,7.05
2022-11-07T15:25:44.128Z,8.32
2022-11-07T15:28:21.629Z,8.80
2022-11-07T15:30:51.889Z,7.97
2022-11-07T15:33:21.967Z,9.35
2022-11-07T15:35:54.745Z,9.55
2022-11-07T15:38:27.385Z,8.15
2022-11-07T15:40:57.468Z,8.90
2022-11-07T15:43:28.279Z,8.48
2022-11-07T15:45:58.255Z,10.35
2022-11-07T15:48:32.986Z,8.07
2022-11-07T15:51:09.860Z,10.73
2022-11-07T15:53:39.771Z,10.45
2022-11-07T15:56:12.061Z,8.50
2022-11-07T15:58:42.115Z,6.60
2022-11-07T16:01:12.609Z,11.18
2022-11-07T16:03:42.628Z,18.35
2022-11-07T16:06:25.302Z,31.25
2022-11-07T16:08:55.506Z,16.52
2022-11-07T16:11:25.585Z,32.13
2022-11-07T16:14:14.889Z,21.05
2022-11-07T16:16:46.154Z,17.88
2022-11-07T16:19:23.824Z,24.05
2022-11-07T16:21:53.837Z,19.67
2022-11-07T16:24:23.871Z,21.55
2022-11-07T16:26:53.962Z,19.58
2022-11-07T16:29:26.730Z,21.45
2022-11-07T16:31:56.679Z,19.00
2022-11-07T16:34:26.675Z,15.60
2022-11-07T16:36:56.603Z,21.15
2022-11-07T16:39:29.013Z,17.25
2022-11-07T16:41:59.212Z,11.70
2022-11-07T16:44:29.164Z,15.00
2022-11-07T16:46:59.237Z,10.63
2022-11-07T16:49:34.924Z,11.98
2022-11-07T16:52:06.042Z,12.25
2022-11-07T16:54:35.931Z,17.15
2022-11-07T16:57:05.872Z,9.85
2022-11-07T16:59:35.954Z,7.85
2022-11-07T17:02:15.175Z,9.88
2022-11-07T17:04:47.864Z,7.65
2022-11-07T17:07:17.970Z,9.02
2022-11-07T17:09:48.087Z,8.93
2022-11-07T17:12:24.722Z,10.70
2022-11-07T17:14:59.030Z,9.63
2022-11-07T17:17:29.057Z,9.23
2022-11-07T17:19:59.059Z,10.68
2022-11-07T17:22:29.555Z,9.50
2022-11-07T17:24:59.452Z,9.15
2022-11-07T17:27:29.924Z,8.40
2022-11-07T17:30:07.405Z,7.55
2022-11-07T17:32:38.618Z,9.70
2022-11-07T17:35:31.052Z,8.05
2022-11-07T17:37:59.432Z,7.57
2022-11-07T17:40:30.727Z,6.95
2022-11-07T17:43:01.218Z,8.68
2022-11-07T17:45:31.284Z,8.73
2022-11-07T17:48:01.215Z,7.15
2022-11-07T17:50:31.373Z,7.45
2022-11-07T17:53:01.505Z,5.80
2022-11-07T17:55:31.547Z,7.65
2022-11-07T17:58:01.472Z,9.35
2022-11-07T18:00:31.464Z,8.65
2022-11-07T18:03:01.719Z,8.23
2022-11-07T18:05:35.785Z,6.75
2022-11-07T18:08:07.234Z,8.57
2022-11-07T18:10:39.373Z,9.23
2022-11-07T18:13:10.050Z,7.55
2022-11-07T18:15:40.162Z,7.03
2022-11-07T18:18:11.441Z,9.73
2022-11-07T18:20:41.938Z,7.45
2022-11-07T18:23:12.377Z,9.63
2022-11-07T18:25:42.884Z,8.07
2022-11-07T18:28:13.469Z,8.00
2022-11-07T18:30:43.718Z,7.35
2022-11-07T18:33:13.676Z,8.63
2022-11-07T18:35:44.325Z,7.72
2022-11-07T18:38:15.237Z,11.68
2022-11-07T18:40:45.751Z,6.85
2022-11-07T18:43:15.769Z,7.20
2022-11-07T18:45:45.964Z,7.88
2022-11-07T18:48:16.699Z,6.80
2022-11-07T18:50:47.497Z,9.27
2022-11-07T18:53:17.567Z,7.25
2022-11-07T18:55:48.439Z,6.97
2022-11-07T18:58:19.323Z,6.85
2022-11-07T19:00:49.926Z,7.18
2022-11-07T19:03:25.775Z,6.95
2022-11-07T19:06:02.199Z,5.80
2022-11-07T19:08:40.237Z,6.95
2022-11-07T19:11:12.015Z,5.82
2022-11-07T19:13:43.207Z,6.30
2022-11-07T19:16:16.843Z,6.43
2022-11-07T19:18:49.598Z,7.97
2022-11-07T19:21:21.788Z,6.60
2022-11-07T19:23:51.897Z,6.57
2022-11-07T19:26:21.924Z,7.90
2022-11-07T19:28:54.974Z,6.38
2022-11-07T19:31:25.229Z,6.72
2022-11-07T19:33:55.307Z,9.10
2022-11-07T19:36:25.941Z,7.20
2022-11-07T19:38:56.459Z,7.13
2022-11-07T19:41:26.593Z,6.25
2022-11-07T19:43:57.026Z,6.07
2022-11-07T19:46:27.520Z,7.53
2022-11-07T19:48:58.428Z,5.55
2022-11-07T19:51:29.205Z,7.15
2022-11-07T19:54:00.341Z,7.32
2022-11-07T19:56:32.283Z,7.65
2022-11-07T19:59:02.624Z,8.43
2022-11-07T20:01:34.727Z,16.50
2022-11-07T20:04:06.017Z,8.90
2022-11-07T20:06:39.638Z,6.63
2022-11-07T20:11:40.557Z,6.38
2022-11-07T20:14:10.651Z,7.68
2022-11-07T20:16:42.806Z,8.13
2022-11-07T20:19:13.242Z,6.57
2022-11-07T20:21:43.988Z,7.45
2022-11-07T20:24:14.019Z,5.70
2022-11-07T20:26:46.987Z,7.05
2022-11-07T20:29:19.638Z,7.28
2022-11-07T20:31:50.104Z,7.22
2022-11-07T20:34:21.680Z,6.68
2022-11-07T20:36:55.120Z,9.45
2022-11-07T20:39:25.508Z,6.57
2022-11-07T20:41:55.664Z,5.97
2022-11-07T20:44:25.631Z,7.50
2022-11-07T20:46:58.259Z,5.90
2022-11-07T20:49:28.520Z,11.53
2022-11-07T20:51:59.491Z,7.93
2022-11-07T20:54:31.180Z,7.28
2022-11-07T20:57:01.610Z,8.23
2022-11-07T20:59:35.239Z,6.88
2022-11-07T21:02:05.651Z,9.70
2022-11-07T21:04:56.371Z,6.80
2022-11-07T21:07:25.711Z,6.65
2022-11-07T21:09:55.761Z,8.95
2022-11-07T21:12:26.562Z,6.90
2022-11-07T21:14:56.485Z,7.97
2022-11-07T21:17:27.345Z,6.63
2022-11-07T21:19:57.476Z,7.80
2022-11-07T21:22:29.519Z,6.55
2022-11-07T21:25:00.034Z,11.38
2022-11-07T21:27:29.990Z,6.63
2022-11-07T21:30:00.108Z,8.18
2022-11-07T21:32:30.458Z,6.50
2022-11-07T21:35:00.950Z,6.40
2022-11-07T21:37:30.927Z,8.05
2022-11-07T21:40:00.765Z,8.43
2022-11-07T21:42:30.807Z,7.22
2022-11-07T21:45:00.818Z,9.13
2022-11-07T21:47:31.643Z,8.00
2022-11-07T21:50:09.411Z,7.88
2022-11-07T21:52:48.711Z,6.80
2022-11-07T21:55:18.947Z,5.97
2022-11-07T21:57:48.905Z,7.47
2022-11-07T22:00:19.084Z,10.20
2022-11-07T22:02:49.617Z,4.90
2022-11-07T22:05:21.272Z,9.63
2022-11-07T22:07:51.230Z,9.60
2022-11-07T22:10:21.123Z,8.48
2022-11-07T22:12:53.489Z,7.72
2022-11-07T22:15:23.414Z,6.78
2022-11-07T22:17:53.527Z,10.27
2022-11-07T22:20:23.475Z,8.80
2022-11-07T22:22:53.818Z,8.60
2022-11-07T22:25:23.873Z,10.70
2022-11-07T22:27:53.974Z,5.93
2022-11-07T22:30:23.917Z,7.15
2022-11-07T22:32:54.350Z,6.32
2022-11-07T22:35:25.279Z,6.55
2022-11-07T22:37:55.455Z,6.93
2022-11-07T22:40:25.475Z,6.65
2022-11-07T22:42:56.052Z,6.85
2022-11-07T22:45:26.289Z,7.00
2022-11-07T22:47:56.380Z,7.90
2022-11-07T22:50:26.876Z,7.70
2022-11-07T22:52:57.766Z,6.70
2022-11-07T22:55:27.749Z,6.20
2022-11-07T22:57:58.053Z,7.43
2022-11-07T23:00:27.946Z,7.47
2022-11-07T23:02:58.360Z,7.47
2022-11-07T23:05:28.799Z,8.57
2022-11-07T23:07:58.755Z,7.82
2022-11-07T23:10:28.604Z,6.95
2022-11-07T23:12:58.759Z,8.40
2022-11-07T23:15:28.671Z,5.93
2022-11-07T23:17:59.237Z,8.80
2022-11-07T23:20:47.942Z,7.53
2022-11-07T23:23:18.728Z,8.98
2022-11-07T23:25:48.673Z,6.55
2022-11-07T23:28:18.968Z,5.50
2022-11-07T23:30:55.611Z,7.22
2022-11-07T23:33:25.539Z,7.45
2022-11-07T23:35:59.789Z,8.60
2022-11-07T23:38:29.972Z,7.43
2022-11-07T23:41:04.035Z,10.80
2022-11-07T23:43:34.544Z,10.43
2022-11-07T23:46:22.605Z,7.43
2022-11-07T23:49:14.564Z,8.43
2022-11-07T23:51:46.890Z,6.57
2022-11-07T23:54:35.580Z,8.98
2022-11-07T23:57:08.510Z,13.90
2022-11-07T23:59:56.667Z,6.13
